sensor_id;sensor_type;location;lat;lon;timestamp;temperature;humidity
18260;DHT22;9256;52.236;5.712;2023-08-24T00:00:45;16.40;99.90
18260;DHT22;9256;52.236;5.712;2023-08-24T00:03:12;16.40;99.90
18260;DHT22;9256;52.236;5.712;2023-08-24T00:05:39;16.30;99.90
18260;DHT22;9256;52.236;5.712;2023-08-24T00:08:08;16.30;99.90
18260;DHT22;9256;52.236;5.712;2023-08-24T00:10:35;16.20;99.90
18260;DHT22;9256;52.236;5.712;2023-08-24T00:13:03;16.20;99.90
18260;DHT22;9256;52.236;5.712;2023-08-24T00:15:31;16.20;99.90
18260;DHT22;9256;52.236;5.712;2023-08-24T00:17:59;16.20;99.90
18260;DHT22;9256;52.236;5.712;2023-08-24T00:20:26;16.30;99.90
18260;DHT22;9256;52.236;5.712;2023-08-24T00:22:53;16.20;99.90
18260;DHT22;9256;52.236;5.712;2023-08-24T00:25:20;16.20;99.90
18260;DHT22;9256;52.236;5.712;2023-08-24T00:27:47;16.10;99.90
18260;DHT22;9256;52.236;5.712;2023-08-24T00:30:14;16.00;99.90
18260;DHT22;9256;52.236;5.712;2023-08-24T00:32:42;15.90;99.90
18260;DHT22;9256;52.236;5.712;2023-08-24T00:35:09;16.00;99.90
18260;DHT22;9256;52.236;5.712;2023-08-24T00:37:36;15.90;99.90
18260;DHT22;9256;52.236;5.712;2023-08-24T00:40:05;15.80;99.90
18260;DHT22;9256;52.236;5.712;2023-08-24T00:42:37;15.70;99.90
18260;DHT22;9256;52.236;5.712;2023-08-24T00:45:05;15.80;99.90
18260;DHT22;9256;52.236;5.712;2023-08-24T00:47:33;15.90;99.90
18260;DHT22;9256;52.236;5.712;2023-08-24T00:50:02;15.90;99.90
18260;DHT22;9256;52.236;5.712;2023-08-24T00:52:31;16.00;99.90
18260;DHT22;9256;52.236;5.712;2023-08-24T00:54:59;16.00;99.90
18260;DHT22;9256;52.236;5.712;2023-08-24T00:57:26;16.00;99.90
18260;DHT22;9256;52.236;5.712;2023-08-24T00:59:53;16.20;99.90
18260;DHT22;9256;52.236;5.712;2023-08-24T01:02:20;16.30;99.90
18260;DHT22;9256;52.236;5.712;2023-08-24T01:04:47;16.30;99.90
18260;DHT22;9256;52.236;5.712;2023-08-24T01:07:16;16.10;99.90
18260;DHT22;9256;52.236;5.712;2023-08-24T01:09:43;16.10;99.90
18260;DHT22;9256;52.236;5.712;2023-08-24T01:12:28;16.20;99.90
18260;DHT22;9256;52.236;5.712;2023-08-24T01:15:04;16.20;99.90
18260;DHT22;9256;52.236;5.712;2023-08-24T01:17:35;16.30;99.90
18260;DHT22;9256;52.236;5.712;2023-08-24T01:20:04;16.30;99.90
18260;DHT22;9256;52.236;5.712;2023-08-24T01:22:37;16.20;99.90
18260;DHT22;9256;52.236;5.712;2023-08-24T01:25:14;16.30;99.90
18260;DHT22;9256;52.236;5.712;2023-08-24T01:27:43;16.30;99.90
18260;DHT22;9256;52.236;5.712;2023-08-24T01:30:11;16.30;99.90
18260;DHT22;9256;52.236;5.712;2023-08-24T01:32:38;16.30;99.90
18260;DHT22;9256;52.236;5.712;2023-08-24T01:35:08;16.30;99.90
18260;DHT22;9256;52.236;5.712;2023-08-24T01:37:36;16.50;99.90
18260;DHT22;9256;52.236;5.712;2023-08-24T01:40:06;16.60;99.90
18260;DHT22;9256;52.236;5.712;2023-08-24T01:42:37;16.70;99.90
18260;DHT22;9256;52.236;5.712;2023-08-24T01:45:08;16.70;99.90
18260;DHT22;9256;52.236;5.712;2023-08-24T01:47:37;16.70;99.90
18260;DHT22;9256;52.236;5.712;2023-08-24T01:50:06;16.70;99.90
18260;DHT22;9256;52.236;5.712;2023-08-24T01:52:34;16.70;99.90
18260;DHT22;9256;52.236;5.712;2023-08-24T01:55:01;16.80;99.90
18260;DHT22;9256;52.236;5.712;2023-08-24T01:57:28;16.80;99.90
18260;DHT22;9256;52.236;5.712;2023-08-24T01:59:55;16.80;99.90
18260;DHT22;9256;52.236;5.712;2023-08-24T02:02:24;16.80;99.90
18260;DHT22;9256;52.236;5.712;2023-08-24T02:04:51;16.90;99.90
18260;DHT22;9256;52.236;5.712;2023-08-24T02:07:18;17.00;99.90
18260;DHT22;9256;52.236;5.712;2023-08-24T02:09:45;17.00;99.90
18260;DHT22;9256;52.236;5.712;2023-08-24T02:12:12;16.90;99.90
18260;DHT22;9256;52.236;5.712;2023-08-24T02:14:39;16.90;99.90
18260;DHT22;9256;52.236;5.712;2023-08-24T02:17:05;16.80;99.90
18260;DHT22;9256;52.236;5.712;2023-08-24T02:19:34;16.80;99.90
18260;DHT22;9256;52.236;5.712;2023-08-24T02:22:01;16.90;99.90
18260;DHT22;9256;52.236;5.712;2023-08-24T02:24:28;16.80;99.90
18260;DHT22;9256;52.236;5.712;2023-08-24T02:26:55;16.90;99.90
18260;DHT22;9256;52.236;5.712;2023-08-24T02:29:21;16.80;99.90
18260;DHT22;9256;52.236;5.712;2023-08-24T02:31:49;16.80;99.90
18260;DHT22;9256;52.236;5.712;2023-08-24T02:34:16;16.90;99.90
18260;DHT22;9256;52.236;5.712;2023-08-24T02:36:44;16.90;99.90
18260;DHT22;9256;52.236;5.712;2023-08-24T02:39:11;16.90;99.90
18260;DHT22;9256;52.236;5.712;2023-08-24T02:41:39;16.90;99.90
18260;DHT22;9256;52.236;5.712;2023-08-24T02:44:06;16.90;99.90
18260;DHT22;9256;52.236;5.712;2023-08-24T02:46:33;17.00;99.90
18260;DHT22;9256;52.236;5.712;2023-08-24T02:48:59;17.00;99.90
18260;DHT22;9256;52.236;5.712;2023-08-24T02:51:26;17.00;99.90
18260;DHT22;9256;52.236;5.712;2023-08-24T02:53:55;17.00;99.90
18260;DHT22;9256;52.236;5.712;2023-08-24T02:56:21;17.00;99.90
18260;DHT22;9256;52.236;5.712;2023-08-24T02:58:48;16.90;99.90
18260;DHT22;9256;52.236;5.712;2023-08-24T03:01:15;16.90;99.90
18260;DHT22;9256;52.236;5.712;2023-08-24T03:03:42;16.90;99.90
18260;DHT22;9256;52.236;5.712;2023-08-24T03:06:09;16.80;99.90
18260;DHT22;9256;52.236;5.712;2023-08-24T03:08:36;16.80;99.90
18260;DHT22;9256;52.236;5.712;2023-08-24T03:11:04;16.80;99.90
18260;DHT22;9256;52.236;5.712;2023-08-24T03:13:31;16.80;99.90
18260;DHT22;9256;52.236;5.712;2023-08-24T03:16:03;16.80;99.90
18260;DHT22;9256;52.236;5.712;2023-08-24T03:18:30;16.80;99.90
18260;DHT22;9256;52.236;5.712;2023-08-24T03:20:57;16.70;99.90
18260;DHT22;9256;52.236;5.712;2023-08-24T03:23:24;16.60;99.90
18260;DHT22;9256;52.236;5.712;2023-08-24T03:25:51;16.60;99.90
18260;DHT22;9256;52.236;5.712;2023-08-24T03:28:19;16.60;99.90
18260;DHT22;9256;52.236;5.712;2023-08-24T03:30:48;16.60;99.90
18260;DHT22;9256;52.236;5.712;2023-08-24T03:33:15;16.60;99.90
18260;DHT22;9256;52.236;5.712;2023-08-24T03:35:42;16.50;99.90
18260;DHT22;9256;52.236;5.712;2023-08-24T03:38:09;16.40;99.90
18260;DHT22;9256;52.236;5.712;2023-08-24T03:40:36;16.40;99.90
18260;DHT22;9256;52.236;5.712;2023-08-24T03:43:03;16.40;99.90
18260;DHT22;9256;52.236;5.712;2023-08-24T03:45:32;16.30;99.90
18260;DHT22;9256;52.236;5.712;2023-08-24T03:47:58;16.40;99.90
18260;DHT22;9256;52.236;5.712;2023-08-24T03:50:25;16.40;99.90
18260;DHT22;9256;52.236;5.712;2023-08-24T03:52:54;16.40;99.90
18260;DHT22;9256;52.236;5.712;2023-08-24T03:55:21;16.40;99.90
18260;DHT22;9256;52.236;5.712;2023-08-24T03:57:48;16.40;99.90
18260;DHT22;9256;52.236;5.712;2023-08-24T04:00:15;16.40;99.90
18260;DHT22;9256;52.236;5.712;2023-08-24T04:02:44;16.40;99.90
18260;DHT22;9256;52.236;5.712;2023-08-24T04:05:11;16.40;99.90
18260;DHT22;9256;52.236;5.712;2023-08-24T04:07:38;16.50;99.90
18260;DHT22;9256;52.236;5.712;2023-08-24T04:10:08;16.50;99.90
18260;DHT22;9256;52.236;5.712;2023-08-24T04:12:35;16.40;99.90
18260;DHT22;9256;52.236;5.712;2023-08-24T04:15:02;16.40;99.90
18260;DHT22;9256;52.236;5.712;2023-08-24T04:17:30;16.40;99.90
18260;DHT22;9256;52.236;5.712;2023-08-24T04:19:58;16.40;99.90
18260;DHT22;9256;52.236;5.712;2023-08-24T04:22:25;16.50;99.90
18260;DHT22;9256;52.236;5.712;2023-08-24T04:24:52;16.40;99.90
18260;DHT22;9256;52.236;5.712;2023-08-24T04:27:19;16.40;99.90
18260;DHT22;9256;52.236;5.712;2023-08-24T04:29:47;16.40;99.90
18260;DHT22;9256;52.236;5.712;2023-08-24T04:32:14;16.30;99.90
18260;DHT22;9256;52.236;5.712;2023-08-24T04:34:42;16.30;99.90
18260;DHT22;9256;52.236;5.712;2023-08-24T04:37:10;16.20;99.90
18260;DHT22;9256;52.236;5.712;2023-08-24T04:39:37;16.10;99.90
18260;DHT22;9256;52.236;5.712;2023-08-24T04:42:04;16.20;99.90
18260;DHT22;9256;52.236;5.712;2023-08-24T04:44:31;16.10;99.90
18260;DHT22;9256;52.236;5.712;2023-08-24T04:46:58;16.10;99.90
18260;DHT22;9256;52.236;5.712;2023-08-24T04:49:25;16.10;99.90
18260;DHT22;9256;52.236;5.712;2023-08-24T04:51:54;16.10;99.90
18260;DHT22;9256;52.236;5.712;2023-08-24T04:54:22;16.10;99.90
18260;DHT22;9256;52.236;5.712;2023-08-24T04:56:49;16.10;99.90
18260;DHT22;9256;52.236;5.712;2023-08-24T04:59:16;16.00;99.90
18260;DHT22;9256;52.236;5.712;2023-08-24T05:01:43;16.00;99.90
18260;DHT22;9256;52.236;5.712;2023-08-24T05:04:10;16.00;99.90
18260;DHT22;9256;52.236;5.712;2023-08-24T05:06:37;16.00;99.90
18260;DHT22;9256;52.236;5.712;2023-08-24T05:09:04;16.00;99.90
18260;DHT22;9256;52.236;5.712;2023-08-24T05:11:33;16.10;99.90
18260;DHT22;9256;52.236;5.712;2023-08-24T05:14:00;16.10;99.90
18260;DHT22;9256;52.236;5.712;2023-08-24T05:16:27;16.10;99.90
18260;DHT22;9256;52.236;5.712;2023-08-24T05:18:54;16.10;99.90
18260;DHT22;9256;52.236;5.712;2023-08-24T05:21:22;16.20;99.90
18260;DHT22;9256;52.236;5.712;2023-08-24T05:23:49;16.20;99.90
18260;DHT22;9256;52.236;5.712;2023-08-24T05:26:16;16.30;99.90
18260;DHT22;9256;52.236;5.712;2023-08-24T05:28:50;16.30;99.90
18260;DHT22;9256;52.236;5.712;2023-08-24T05:31:17;16.40;99.90
18260;DHT22;9256;52.236;5.712;2023-08-24T05:33:44;16.40;99.90
18260;DHT22;9256;52.236;5.712;2023-08-24T05:36:11;16.50;99.90
18260;DHT22;9256;52.236;5.712;2023-08-24T05:38:38;16.50;99.90
18260;DHT22;9256;52.236;5.712;2023-08-24T05:41:10;16.30;99.90
18260;DHT22;9256;52.236;5.712;2023-08-24T05:43:37;16.10;99.90
18260;DHT22;9256;52.236;5.712;2023-08-24T05:46:05;16.10;99.90
18260;DHT22;9256;52.236;5.712;2023-08-24T05:48:32;16.00;99.90
18260;DHT22;9256;52.236;5.712;2023-08-24T05:51:00;16.00;99.90
18260;DHT22;9256;52.236;5.712;2023-08-24T05:53:27;16.10;99.90
18260;DHT22;9256;52.236;5.712;2023-08-24T05:55:57;16.20;99.90
18260;DHT22;9256;52.236;5.712;2023-08-24T05:58:24;16.30;99.90
18260;DHT22;9256;52.236;5.712;2023-08-24T06:00:56;16.50;99.90
18260;DHT22;9256;52.236;5.712;2023-08-24T06:03:25;16.60;99.90
18260;DHT22;9256;52.236;5.712;2023-08-24T06:05:52;16.80;99.90
18260;DHT22;9256;52.236;5.712;2023-08-24T06:08:19;16.90;99.90
18260;DHT22;9256;52.236;5.712;2023-08-24T06:10:46;17.00;99.90
18260;DHT22;9256;52.236;5.712;2023-08-24T06:13:13;17.10;99.90
18260;DHT22;9256;52.236;5.712;2023-08-24T06:15:40;17.20;99.90
18260;DHT22;9256;52.236;5.712;2023-08-24T06:18:06;17.20;99.90
18260;DHT22;9256;52.236;5.712;2023-08-24T06:20:35;17.30;99.90
18260;DHT22;9256;52.236;5.712;2023-08-24T06:23:02;17.40;99.90
18260;DHT22;9256;52.236;5.712;2023-08-24T06:25:29;17.50;99.90
18260;DHT22;9256;52.236;5.712;2023-08-24T06:27:57;17.60;99.90
18260;DHT22;9256;52.236;5.712;2023-08-24T06:30:24;17.70;99.90
18260;DHT22;9256;52.236;5.712;2023-08-24T06:32:51;17.80;99.90
18260;DHT22;9256;52.236;5.712;2023-08-24T06:35:18;17.90;99.90
18260;DHT22;9256;52.236;5.712;2023-08-24T06:37:46;18.00;99.90
18260;DHT22;9256;52.236;5.712;2023-08-24T06:40:13;18.20;99.90
18260;DHT22;9256;52.236;5.712;2023-08-24T06:42:40;18.20;99.90
18260;DHT22;9256;52.236;5.712;2023-08-24T06:45:08;18.20;99.90
18260;DHT22;9256;52.236;5.712;2023-08-24T06:47:36;18.40;99.90
18260;DHT22;9256;52.236;5.712;2023-08-24T06:50:04;18.50;99.90
18260;DHT22;9256;52.236;5.712;2023-08-24T06:52:31;18.70;99.90
18260;DHT22;9256;52.236;5.712;2023-08-24T06:54:59;18.90;99.90
18260;DHT22;9256;52.236;5.712;2023-08-24T06:57:26;18.90;99.90
18260;DHT22;9256;52.236;5.712;2023-08-24T06:59:53;19.00;99.90
18260;DHT22;9256;52.236;5.712;2023-08-24T07:02:20;19.20;99.90
18260;DHT22;9256;52.236;5.712;2023-08-24T07:04:48;19.30;99.90
18260;DHT22;9256;52.236;5.712;2023-08-24T07:07:15;19.40;99.90
18260;DHT22;9256;52.236;5.712;2023-08-24T07:09:42;19.50;99.90
18260;DHT22;9256;52.236;5.712;2023-08-24T07:12:10;19.70;99.90
18260;DHT22;9256;52.236;5.712;2023-08-24T07:14:37;19.70;99.90
18260;DHT22;9256;52.236;5.712;2023-08-24T07:17:06;19.90;99.90
18260;DHT22;9256;52.236;5.712;2023-08-24T07:19:32;20.00;99.90
18260;DHT22;9256;52.236;5.712;2023-08-24T07:21:59;20.20;99.90
18260;DHT22;9256;52.236;5.712;2023-08-24T07:24:26;20.30;99.90
18260;DHT22;9256;52.236;5.712;2023-08-24T07:26:55;20.40;99.90
18260;DHT22;9256;52.236;5.712;2023-08-24T07:29:23;20.40;99.90
18260;DHT22;9256;52.236;5.712;2023-08-24T07:31:50;20.40;99.90
18260;DHT22;9256;52.236;5.712;2023-08-24T07:34:17;20.60;99.90
18260;DHT22;9256;52.236;5.712;2023-08-24T07:36:44;20.70;99.90
18260;DHT22;9256;52.236;5.712;2023-08-24T07:39:13;20.80;99.90
18260;DHT22;9256;52.236;5.712;2023-08-24T07:41:41;20.90;99.90
18260;DHT22;9256;52.236;5.712;2023-08-24T07:44:08;20.90;99.90
18260;DHT22;9256;52.236;5.712;2023-08-24T07:46:38;21.00;99.90
18260;DHT22;9256;52.236;5.712;2023-08-24T07:49:05;21.10;99.90
18260;DHT22;9256;52.236;5.712;2023-08-24T07:51:33;21.30;99.90
18260;DHT22;9256;52.236;5.712;2023-08-24T07:54:00;21.40;99.90
18260;DHT22;9256;52.236;5.712;2023-08-24T07:56:27;21.40;99.90
18260;DHT22;9256;52.236;5.712;2023-08-24T07:58:54;21.60;99.90
18260;DHT22;9256;52.236;5.712;2023-08-24T08:01:21;21.60;99.90
18260;DHT22;9256;52.236;5.712;2023-08-24T08:03:49;21.50;99.90
18260;DHT22;9256;52.236;5.712;2023-08-24T08:06:16;21.70;99.90
18260;DHT22;9256;52.236;5.712;2023-08-24T08:08:43;21.90;99.90
18260;DHT22;9256;52.236;5.712;2023-08-24T08:11:12;22.20;99.90
18260;DHT22;9256;52.236;5.712;2023-08-24T08:13:39;22.30;99.90
18260;DHT22;9256;52.236;5.712;2023-08-24T08:16:06;22.40;99.90
18260;DHT22;9256;52.236;5.712;2023-08-24T08:18:35;22.50;99.90
18260;DHT22;9256;52.236;5.712;2023-08-24T08:21:10;22.50;99.90
18260;DHT22;9256;52.236;5.712;2023-08-24T08:23:37;22.80;99.90
18260;DHT22;9256;52.236;5.712;2023-08-24T08:26:04;22.80;99.90
18260;DHT22;9256;52.236;5.712;2023-08-24T08:28:32;23.10;99.90
18260;DHT22;9256;52.236;5.712;2023-08-24T08:31:00;23.20;99.90
18260;DHT22;9256;52.236;5.712;2023-08-24T08:33:27;23.30;99.90
18260;DHT22;9256;52.236;5.712;2023-08-24T08:35:54;23.20;99.90
18260;DHT22;9256;52.236;5.712;2023-08-24T08:38:23;23.30;99.90
18260;DHT22;9256;52.236;5.712;2023-08-24T08:40:51;23.50;99.90
18260;DHT22;9256;52.236;5.712;2023-08-24T08:43:21;23.70;99.90
18260;DHT22;9256;52.236;5.712;2023-08-24T08:45:49;23.80;99.90
18260;DHT22;9256;52.236;5.712;2023-08-24T08:48:17;23.90;99.90
18260;DHT22;9256;52.236;5.712;2023-08-24T08:50:46;23.80;99.90
18260;DHT22;9256;52.236;5.712;2023-08-24T08:53:15;24.10;99.90
18260;DHT22;9256;52.236;5.712;2023-08-24T08:55:44;24.40;99.90
18260;DHT22;9256;52.236;5.712;2023-08-24T08:58:11;24.30;99.90
18260;DHT22;9256;52.236;5.712;2023-08-24T09:00:39;24.50;99.90
18260;DHT22;9256;52.236;5.712;2023-08-24T09:03:08;24.50;99.90
18260;DHT22;9256;52.236;5.712;2023-08-24T09:05:37;24.50;99.90
18260;DHT22;9256;52.236;5.712;2023-08-24T09:08:05;24.70;99.90
18260;DHT22;9256;52.236;5.712;2023-08-24T09:10:32;24.80;99.90
18260;DHT22;9256;52.236;5.712;2023-08-24T09:13:00;25.20;99.90
18260;DHT22;9256;52.236;5.712;2023-08-24T09:15:34;25.40;99.90
18260;DHT22;9256;52.236;5.712;2023-08-24T09:18:01;25.30;99.90
18260;DHT22;9256;52.236;5.712;2023-08-24T09:20:29;25.30;99.90
18260;DHT22;9256;52.236;5.712;2023-08-24T09:22:56;25.50;99.90
18260;DHT22;9256;52.236;5.712;2023-08-24T09:25:23;25.70;99.90
18260;DHT22;9256;52.236;5.712;2023-08-24T09:27:56;25.90;99.90
18260;DHT22;9256;52.236;5.712;2023-08-24T09:30:29;25.80;99.90
18260;DHT22;9256;52.236;5.712;2023-08-24T09:33:01;26.00;99.90
18260;DHT22;9256;52.236;5.712;2023-08-24T09:35:28;26.10;99.90
18260;DHT22;9256;52.236;5.712;2023-08-24T09:37:55;26.20;99.90
18260;DHT22;9256;52.236;5.712;2023-08-24T09:40:24;26.10;99.90
18260;DHT22;9256;52.236;5.712;2023-08-24T09:42:52;26.50;99.90
18260;DHT22;9256;52.236;5.712;2023-08-24T09:45:19;26.80;99.90
18260;DHT22;9256;52.236;5.712;2023-08-24T09:47:49;26.90;99.90
18260;DHT22;9256;52.236;5.712;2023-08-24T09:50:18;27.00;99.90
18260;DHT22;9256;52.236;5.712;2023-08-24T09:52:47;27.20;99.90
18260;DHT22;9256;52.236;5.712;2023-08-24T09:55:20;27.50;99.90
18260;DHT22;9256;52.236;5.712;2023-08-24T09:57:52;27.60;99.90
18260;DHT22;9256;52.236;5.712;2023-08-24T10:00:20;27.40;99.90
18260;DHT22;9256;52.236;5.712;2023-08-24T10:02:52;27.40;99.90
18260;DHT22;9256;52.236;5.712;2023-08-24T10:05:22;27.40;99.90
18260;DHT22;9256;52.236;5.712;2023-08-24T10:07:51;27.40;99.90
18260;DHT22;9256;52.236;5.712;2023-08-24T10:10:20;27.40;99.90
18260;DHT22;9256;52.236;5.712;2023-08-24T10:12:51;27.10;99.90
18260;DHT22;9256;52.236;5.712;2023-08-24T10:15:19;27.40;99.90
18260;DHT22;9256;52.236;5.712;2023-08-24T10:17:48;27.20;99.90
18260;DHT22;9256;52.236;5.712;2023-08-24T10:20:18;27.00;99.90
18260;DHT22;9256;52.236;5.712;2023-08-24T10:22:47;27.10;99.90
18260;DHT22;9256;52.236;5.712;2023-08-24T10:25:16;26.90;99.90
18260;DHT22;9256;52.236;5.712;2023-08-24T10:27:44;26.80;99.90
18260;DHT22;9256;52.236;5.712;2023-08-24T10:30:14;26.70;99.90
18260;DHT22;9256;52.236;5.712;2023-08-24T10:32:43;26.60;99.90
18260;DHT22;9256;52.236;5.712;2023-08-24T10:35:11;26.30;99.90
18260;DHT22;9256;52.236;5.712;2023-08-24T10:37:44;26.10;99.90
18260;DHT22;9256;52.236;5.712;2023-08-24T10:40:13;26.20;99.90
18260;DHT22;9256;52.236;5.712;2023-08-24T10:42:46;26.00;99.90
18260;DHT22;9256;52.236;5.712;2023-08-24T10:45:14;26.10;99.90
18260;DHT22;9256;52.236;5.712;2023-08-24T10:47:45;26.10;99.90
18260;DHT22;9256;52.236;5.712;2023-08-24T10:50:12;25.80;99.90
18260;DHT22;9256;52.236;5.712;2023-08-24T10:52:44;25.70;99.90
18260;DHT22;9256;52.236;5.712;2023-08-24T10:55:26;25.70;99.90
18260;DHT22;9256;52.236;5.712;2023-08-24T10:57:56;25.60;99.90
18260;DHT22;9256;52.236;5.712;2023-08-24T11:00:26;25.50;99.90
18260;DHT22;9256;52.236;5.712;2023-08-24T11:02:53;25.30;99.90
18260;DHT22;9256;52.236;5.712;2023-08-24T11:05:22;25.30;99.90
18260;DHT22;9256;52.236;5.712;2023-08-24T11:07:53;25.30;99.90
18260;DHT22;9256;52.236;5.712;2023-08-24T11:10:20;25.40;99.90
18260;DHT22;9256;52.236;5.712;2023-08-24T11:13:07;25.40;99.90
18260;DHT22;9256;52.236;5.712;2023-08-24T11:15:38;25.60;99.90
18260;DHT22;9256;52.236;5.712;2023-08-24T11:18:15;25.70;99.90
18260;DHT22;9256;52.236;5.712;2023-08-24T11:20:47;25.60;99.90
18260;DHT22;9256;52.236;5.712;2023-08-24T11:23:16;25.50;99.90
18260;DHT22;9256;52.236;5.712;2023-08-24T11:25:44;25.30;99.90
18260;DHT22;9256;52.236;5.712;2023-08-24T11:28:16;25.10;99.90
18260;DHT22;9256;52.236;5.712;2023-08-24T11:30:44;25.00;99.90
18260;DHT22;9256;52.236;5.712;2023-08-24T11:33:12;24.90;99.90
18260;DHT22;9256;52.236;5.712;2023-08-24T11:35:40;24.90;99.90
18260;DHT22;9256;52.236;5.712;2023-08-24T11:38:08;25.10;99.90
18260;DHT22;9256;52.236;5.712;2023-08-24T11:40:36;25.20;99.90
18260;DHT22;9256;52.236;5.712;2023-08-24T11:43:04;25.50;99.90
18260;DHT22;9256;52.236;5.712;2023-08-24T11:45:33;25.50;99.90
18260;DHT22;9256;52.236;5.712;2023-08-24T11:48:00;25.60;99.90
18260;DHT22;9256;52.236;5.712;2023-08-24T11:50:28;25.80;99.90
18260;DHT22;9256;52.236;5.712;2023-08-24T11:52:55;26.20;99.90
18260;DHT22;9256;52.236;5.712;2023-08-24T11:55:23;26.20;99.90
18260;DHT22;9256;52.236;5.712;2023-08-24T11:57:51;26.30;99.90
18260;DHT22;9256;52.236;5.712;2023-08-24T12:00:20;26.40;99.90
18260;DHT22;9256;52.236;5.712;2023-08-24T12:02:48;26.30;99.90
18260;DHT22;9256;52.236;5.712;2023-08-24T12:05:23;26.40;99.90
18260;DHT22;9256;52.236;5.712;2023-08-24T12:07:52;26.10;99.90
18260;DHT22;9256;52.236;5.712;2023-08-24T12:10:19;26.20;99.90
18260;DHT22;9256;52.236;5.712;2023-08-24T12:12:46;26.70;99.90
18260;DHT22;9256;52.236;5.712;2023-08-24T12:15:19;26.80;99.90
18260;DHT22;9256;52.236;5.712;2023-08-24T12:17:46;27.00;99.90
18260;DHT22;9256;52.236;5.712;2023-08-24T12:20:18;27.10;99.90
18260;DHT22;9256;52.236;5.712;2023-08-24T12:22:51;26.70;99.90
18260;DHT22;9256;52.236;5.712;2023-08-24T12:25:18;26.80;99.90
18260;DHT22;9256;52.236;5.712;2023-08-24T12:27:48;26.90;99.90
18260;DHT22;9256;52.236;5.712;2023-08-24T12:30:15;27.20;99.90
18260;DHT22;9256;52.236;5.712;2023-08-24T12:32:44;27.30;99.90
18260;DHT22;9256;52.236;5.712;2023-08-24T12:35:11;27.50;99.90
18260;DHT22;9256;52.236;5.712;2023-08-24T12:37:38;27.60;99.90
18260;DHT22;9256;52.236;5.712;2023-08-24T12:40:06;27.70;99.90
18260;DHT22;9256;52.236;5.712;2023-08-24T12:42:33;28.00;99.90
18260;DHT22;9256;52.236;5.712;2023-08-24T12:45:00;27.80;99.90
18260;DHT22;9256;52.236;5.712;2023-08-24T12:47:27;27.60;99.90
18260;DHT22;9256;52.236;5.712;2023-08-24T12:49:55;27.80;99.90
18260;DHT22;9256;52.236;5.712;2023-08-24T12:52:22;28.00;99.90
18260;DHT22;9256;52.236;5.712;2023-08-24T12:54:50;28.40;99.90
18260;DHT22;9256;52.236;5.712;2023-08-24T12:57:17;28.90;99.90
18260;DHT22;9256;52.236;5.712;2023-08-24T12:59:44;28.80;99.90
18260;DHT22;9256;52.236;5.712;2023-08-24T13:02:12;27.90;99.90
18260;DHT22;9256;52.236;5.712;2023-08-24T13:04:38;28.00;99.90
18260;DHT22;9256;52.236;5.712;2023-08-24T13:07:07;28.20;99.90
18260;DHT22;9256;52.236;5.712;2023-08-24T13:09:34;28.30;99.90
18260;DHT22;9256;52.236;5.712;2023-08-24T13:12:01;27.80;99.90
18260;DHT22;9256;52.236;5.712;2023-08-24T13:14:28;27.40;99.90
18260;DHT22;9256;52.236;5.712;2023-08-24T13:16:56;27.30;99.90
18260;DHT22;9256;52.236;5.712;2023-08-24T13:19:22;26.90;99.90
18260;DHT22;9256;52.236;5.712;2023-08-24T13:21:49;26.70;99.90
18260;DHT22;9256;52.236;5.712;2023-08-24T13:24:18;26.80;99.90
18260;DHT22;9256;52.236;5.712;2023-08-24T13:26:45;26.80;99.90
18260;DHT22;9256;52.236;5.712;2023-08-24T13:29:11;26.60;99.90
18260;DHT22;9256;52.236;5.712;2023-08-24T13:31:38;26.70;99.90
18260;DHT22;9256;52.236;5.712;2023-08-24T13:34:05;26.60;99.90
18260;DHT22;9256;52.236;5.712;2023-08-24T13:36:33;26.40;99.90
18260;DHT22;9256;52.236;5.712;2023-08-24T13:39:00;26.50;99.90
18260;DHT22;9256;52.236;5.712;2023-08-24T13:41:29;26.60;99.90
18260;DHT22;9256;52.236;5.712;2023-08-24T13:43:56;26.80;99.90
18260;DHT22;9256;52.236;5.712;2023-08-24T13:46:24;27.00;99.90
18260;DHT22;9256;52.236;5.712;2023-08-24T13:48:51;27.30;99.90
18260;DHT22;9256;52.236;5.712;2023-08-24T13:51:18;27.50;99.90
18260;DHT22;9256;52.236;5.712;2023-08-24T13:53:45;27.50;99.90
18260;DHT22;9256;52.236;5.712;2023-08-24T13:56:11;27.60;99.90
18260;DHT22;9256;52.236;5.712;2023-08-24T13:58:40;28.10;99.90
18260;DHT22;9256;52.236;5.712;2023-08-24T14:01:07;28.40;99.90
18260;DHT22;9256;52.236;5.712;2023-08-24T14:03:36;28.50;99.90
18260;DHT22;9256;52.236;5.712;2023-08-24T14:06:03;28.70;99.90
18260;DHT22;9256;52.236;5.712;2023-08-24T14:08:30;28.50;99.90
18260;DHT22;9256;52.236;5.712;2023-08-24T14:10:57;28.20;99.90
18260;DHT22;9256;52.236;5.712;2023-08-24T14:13:24;28.40;99.90
18260;DHT22;9256;52.236;5.712;2023-08-24T14:15:53;28.10;99.90
18260;DHT22;9256;52.236;5.712;2023-08-24T14:18:21;28.00;99.90
18260;DHT22;9256;52.236;5.712;2023-08-24T14:20:48;27.90;99.90
18260;DHT22;9256;52.236;5.712;2023-08-24T14:23:15;27.60;99.90
18260;DHT22;9256;52.236;5.712;2023-08-24T14:25:42;27.40;99.90
18260;DHT22;9256;52.236;5.712;2023-08-24T14:28:09;27.40;99.90
18260;DHT22;9256;52.236;5.712;2023-08-24T14:30:36;27.30;99.90
18260;DHT22;9256;52.236;5.712;2023-08-24T14:33:05;27.00;99.90
18260;DHT22;9256;52.236;5.712;2023-08-24T14:35:31;26.70;99.90
18260;DHT22;9256;52.236;5.712;2023-08-24T14:37:59;26.40;99.90
18260;DHT22;9256;52.236;5.712;2023-08-24T14:40:26;26.10;99.90
18260;DHT22;9256;52.236;5.712;2023-08-24T14:42:53;26.10;99.90
18260;DHT22;9256;52.236;5.712;2023-08-24T14:45:20;25.90;99.90
18260;DHT22;9256;52.236;5.712;2023-08-24T14:47:47;25.90;99.90
18260;DHT22;9256;52.236;5.712;2023-08-24T14:50:16;25.80;99.90
18260;DHT22;9256;52.236;5.712;2023-08-24T14:52:43;25.70;99.90
18260;DHT22;9256;52.236;5.712;2023-08-24T14:55:10;25.80;99.90
18260;DHT22;9256;52.236;5.712;2023-08-24T14:57:38;25.80;99.90
18260;DHT22;9256;52.236;5.712;2023-08-24T15:00:06;25.80;99.90
18260;DHT22;9256;52.236;5.712;2023-08-24T15:02:35;25.70;99.90
18260;DHT22;9256;52.236;5.712;2023-08-24T15:05:03;25.60;99.90
18260;DHT22;9256;52.236;5.712;2023-08-24T15:07:32;25.60;99.90
18260;DHT22;9256;52.236;5.712;2023-08-24T15:09:59;25.40;99.90
18260;DHT22;9256;52.236;5.712;2023-08-24T15:12:25;25.30;99.90
18260;DHT22;9256;52.236;5.712;2023-08-24T15:14:59;25.30;99.90
18260;DHT22;9256;52.236;5.712;2023-08-24T15:17:29;25.20;99.90
18260;DHT22;9256;52.236;5.712;2023-08-24T15:19:56;25.10;99.90
18260;DHT22;9256;52.236;5.712;2023-08-24T15:22:23;25.10;99.90
18260;DHT22;9256;52.236;5.712;2023-08-24T15:24:55;25.10;99.90
18260;DHT22;9256;52.236;5.712;2023-08-24T15:27:22;25.10;99.90
18260;DHT22;9256;52.236;5.712;2023-08-24T15:29:49;25.00;99.90
18260;DHT22;9256;52.236;5.712;2023-08-24T15:32:17;25.00;99.90
18260;DHT22;9256;52.236;5.712;2023-08-24T15:34:44;25.00;99.90
18260;DHT22;9256;52.236;5.712;2023-08-24T15:37:11;25.00;99.90
18260;DHT22;9256;52.236;5.712;2023-08-24T15:39:39;25.00;99.90
18260;DHT22;9256;52.236;5.712;2023-08-24T15:42:07;25.00;99.90
18260;DHT22;9256;52.236;5.712;2023-08-24T15:44:35;25.10;99.90
18260;DHT22;9256;52.236;5.712;2023-08-24T15:47:01;25.10;99.90
18260;DHT22;9256;52.236;5.712;2023-08-24T15:49:28;25.10;99.90